Doresopolis, Brazil
Current Conditions -  °F | °C
As of 7:17 PM on Saturday 22 Nov 2014 (Local Time) from SBPR Reporting Station
Few Clouds Few Clouds  
Wind Chill: 84°   Ceiling: Unl
Heat Index: 85°   Visibility: 6mi
Dew Point: 63°   Wind: 10mph
Humidity: 48%   Direction: 90°E
Pressure: 29.94"   Gusts: NA
Location:  20.29°S, 45.9°W
Report Text: SBPR 222117Z 09009KT 9999 FEW035 29/17 Q1014
Loading
Personal Weather Stations






























Interactive Weather Map New forecast layout! Learn more

10-Day Weather Forecast

Advertisements
Track Severe Weather on mobile